Fitzgerald, GA

3:29 PM EDT on October 31, 2014 (GMT -0400)
Fitzgerald Municipal | Change Station
CLOSE
Current Station
Airport
Location: Fitzgerald Muni, Fitzgerald,,
Elevation: 364 ft
Nearby Weather Stations

Elev 364 ft 31.68 °N, 83.27 °W | Updated 14 minutes ago

Clear
Clear
74 °F
Feels Like 74 °F
N
12
Wind Variable Wind from NW
Gusts 16 mph

Today
High -- | Low -- °F
--% Chance of Precip.
Yesterday
High -- | Low -- °F
Precip. -- in
7:48 AM 6:44 PM
First Quarter, 58% visible
Pressure 29.86 in
Visibility 10.0 miles
Clouds Clear
Dew Point 31 °F
Humidity 21%
Rainfall 0.00 in
Snow Depth Not available.
UV 5 out of 12
Pollen 1.80 out of 12
Air Quality Not available.
Flu Activity Not available.
METAR KFZG 311915Z AUTO 32010G14KT 10SM CLR 23/00 A2986 RMK AO2 T02341004

More Conditions Fewer Conditions

Pressure 29.86 in
Visibility 10.0 miles
Clouds Clear
Dew Point 31 °F
Humidity 21%
Rainfall 0.00 in
Snow Depth Not available.
UV 5 out of 12
Pollen 1.80 out of 12
Air Quality Not available.
Flu Activity Not available.
METAR KFZG 311915Z AUTO 32010G14KT 10SM CLR 23/00 A2986 RMK AO2 T02341004

More Conditions Fewer Conditions

10-Day Weather Forecast

Almanac

Astronomy

Oct. 31, 2014 Rise Set
Actual Time
Civil Twilight
Nautical Twilight
Astronomical Twilight
Moon
Length of Visible Light
Length of Day
Tomorrow will be .
, % of the Moon is Illuminated

Today's Extremes

State Highs State Lows

Community

WunderPhotos

Upload Photos

1,766,699 photos uploaded!

WunderBlogs® & News

Nearby

Air Quality

  Air Quality AQ Index Pollutant
Not available.

Snow Depth

Station Depth Elevation

Earthquake Activity

City Distance Mag. Time & Date
Minimum magnitude displayed is 2.5.

Coastal Water Temperatures

Place Temperature

Nearby Weather Stations